KLSV/LSV METAR and TAF weather

Enter ICAO airport designator
Station Type Date Time Source
KLSV METAR 2020/10/20 16:58 UTC NOAA

KLSV 201658Z COR AUTO 00000KT 10SM CLR 23/M04 A2996 RMK AO2 SLPNO T02261037 $ COR 1659


Station Type Date Time Source
KLSV Decoded METAR 2020/10/20 16:58 UTC NOAA

Nellis Air Force Base, NV, United States (KLSV) 36-14N 115-02W
Oct 20, 2020 - 12:58 PM EDT / 2020.10.20 1658 UTC
Wind: Calm:0
Visibility: 10 mile(s):0
Sky conditions: clear
Temperature: 72.7 F (22.6 C)
Dew Point: 25.3 F (-3.7 C)
Relative Humidity: 16%
Pressure (altimeter): 29.96 in. Hg (1014 hPa)
ob: KLSV 201658Z COR AUTO 00000KT 10SM CLR 23/M04 A2996 RMK AO2 SLPNO T02261037 COR 1659
cycle: 17

Station Type Date Time Source
KLSV TAF 2020/10/20 15:39 UTC NOAA

TAF TAF KLSV 201500Z 2015/2121 05006KT 9999 SKC QNH2988INS
BECMG 2019/2020 14008KT 9999 SKC QNH2981INS TX33/2023Z TN13/2114Z

Example: see airport list